sensor_id;sensor_type;location;lat;lon;timestamp;P1;durP1;ratioP1;P2;durP2;ratioP2
15063;SDS011;7631;52.088;5.088;2024-01-27T00:01:00;4.30;;;1.83;;
15063;SDS011;7631;52.088;5.088;2024-01-27T00:03:25;4.83;;;1.80;;
15063;SDS011;7631;52.088;5.088;2024-01-27T00:05:50;7.10;;;1.87;;
15063;SDS011;7631;52.088;5.088;2024-01-27T00:08:15;3.23;;;1.70;;
15063;SDS011;7631;52.088;5.088;2024-01-27T00:10:41;4.70;;;1.87;;
15063;SDS011;7631;52.088;5.088;2024-01-27T00:13:06;4.30;;;1.67;;
15063;SDS011;7631;52.088;5.088;2024-01-27T00:15:31;4.40;;;1.80;;
15063;SDS011;7631;52.088;5.088;2024-01-27T00:17:56;5.27;;;1.80;;
15063;SDS011;7631;52.088;5.088;2024-01-27T00:20:22;3.13;;;1.70;;
15063;SDS011;7631;52.088;5.088;2024-01-27T00:22:47;3.93;;;1.63;;
15063;SDS011;7631;52.088;5.088;2024-01-27T00:25:12;4.20;;;2.00;;
15063;SDS011;7631;52.088;5.088;2024-01-27T00:27:37;2.93;;;1.93;;
15063;SDS011;7631;52.088;5.088;2024-01-27T00:30:02;4.73;;;1.73;;
15063;SDS011;7631;52.088;5.088;2024-01-27T00:32:28;3.67;;;1.97;;
15063;SDS011;7631;52.088;5.088;2024-01-27T00:34:53;3.87;;;1.67;;
15063;SDS011;7631;52.088;5.088;2024-01-27T00:37:18;4.87;;;1.70;;
15063;SDS011;7631;52.088;5.088;2024-01-27T00:39:44;5.80;;;1.87;;
15063;SDS011;7631;52.088;5.088;2024-01-27T00:42:10;5.60;;;1.70;;
15063;SDS011;7631;52.088;5.088;2024-01-27T00:44:35;2.47;;;1.50;;
15063;SDS011;7631;52.088;5.088;2024-01-27T00:47:01;3.37;;;1.47;;
15063;SDS011;7631;52.088;5.088;2024-01-27T00:49:26;4.13;;;2.00;;
15063;SDS011;7631;52.088;5.088;2024-01-27T00:51:51;3.93;;;2.00;;
15063;SDS011;7631;52.088;5.088;2024-01-27T00:54:16;3.77;;;1.73;;
15063;SDS011;7631;52.088;5.088;2024-01-27T00:56:42;3.67;;;1.50;;
15063;SDS011;7631;52.088;5.088;2024-01-27T00:59:07;4.07;;;1.53;;
15063;SDS011;7631;52.088;5.088;2024-01-27T01:01:32;2.73;;;1.37;;
15063;SDS011;7631;52.088;5.088;2024-01-27T01:03:57;3.57;;;1.70;;
15063;SDS011;7631;52.088;5.088;2024-01-27T01:06:23;3.80;;;1.70;;
15063;SDS011;7631;52.088;5.088;2024-01-27T01:08:48;6.10;;;1.63;;
15063;SDS011;7631;52.088;5.088;2024-01-27T01:11:13;3.37;;;1.73;;
15063;SDS011;7631;52.088;5.088;2024-01-27T01:13:39;6.97;;;1.73;;
15063;SDS011;7631;52.088;5.088;2024-01-27T01:16:05;2.27;;;1.57;;
15063;SDS011;7631;52.088;5.088;2024-01-27T01:18:30;2.47;;;1.50;;
15063;SDS011;7631;52.088;5.088;2024-01-27T01:20:55;5.20;;;1.67;;
15063;SDS011;7631;52.088;5.088;2024-01-27T01:23:20;2.90;;;1.50;;
15063;SDS011;7631;52.088;5.088;2024-01-27T01:25:46;3.50;;;1.57;;
15063;SDS011;7631;52.088;5.088;2024-01-27T01:28:11;4.23;;;1.73;;
15063;SDS011;7631;52.088;5.088;2024-01-27T01:30:36;5.97;;;1.50;;
15063;SDS011;7631;52.088;5.088;2024-01-27T01:33:04;2.83;;;1.33;;
15063;SDS011;7631;52.088;5.088;2024-01-27T01:35:30;2.80;;;1.57;;
15063;SDS011;7631;52.088;5.088;2024-01-27T01:37:55;4.33;;;1.90;;
15063;SDS011;7631;52.088;5.088;2024-01-27T01:40:20;2.37;;;1.40;;
15063;SDS011;7631;52.088;5.088;2024-01-27T01:42:50;3.60;;;1.77;;
15063;SDS011;7631;52.088;5.088;2024-01-27T01:45:15;4.47;;;1.70;;
15063;SDS011;7631;52.088;5.088;2024-01-27T01:47:42;2.40;;;1.53;;
15063;SDS011;7631;52.088;5.088;2024-01-27T01:50:07;5.53;;;1.70;;
15063;SDS011;7631;52.088;5.088;2024-01-27T01:52:33;3.17;;;1.80;;
15063;SDS011;7631;52.088;5.088;2024-01-27T01:54:58;1.90;;;1.30;;
15063;SDS011;7631;52.088;5.088;2024-01-27T01:57:23;2.70;;;1.40;;
15063;SDS011;7631;52.088;5.088;2024-01-27T01:59:48;3.03;;;1.30;;
15063;SDS011;7631;52.088;5.088;2024-01-27T02:02:13;3.07;;;1.40;;
15063;SDS011;7631;52.088;5.088;2024-01-27T02:04:43;3.47;;;1.60;;
15063;SDS011;7631;52.088;5.088;2024-01-27T02:07:08;2.97;;;1.40;;
15063;SDS011;7631;52.088;5.088;2024-01-27T02:09:33;2.73;;;1.60;;
15063;SDS011;7631;52.088;5.088;2024-01-27T02:11:59;3.10;;;1.43;;
15063;SDS011;7631;52.088;5.088;2024-01-27T02:14:24;3.20;;;1.40;;
15063;SDS011;7631;52.088;5.088;2024-01-27T02:16:51;4.03;;;1.60;;
15063;SDS011;7631;52.088;5.088;2024-01-27T02:19:16;3.37;;;1.30;;
15063;SDS011;7631;52.088;5.088;2024-01-27T02:21:42;2.80;;;1.40;;
15063;SDS011;7631;52.088;5.088;2024-01-27T02:24:07;4.47;;;1.60;;
15063;SDS011;7631;52.088;5.088;2024-01-27T02:26:32;4.50;;;2.20;;
15063;SDS011;7631;52.088;5.088;2024-01-27T02:28:57;3.53;;;1.40;;
15063;SDS011;7631;52.088;5.088;2024-01-27T02:31:23;3.83;;;1.70;;
15063;SDS011;7631;52.088;5.088;2024-01-27T02:33:48;2.97;;;1.20;;
15063;SDS011;7631;52.088;5.088;2024-01-27T02:36:13;3.73;;;1.60;;
15063;SDS011;7631;52.088;5.088;2024-01-27T02:38:38;5.20;;;1.77;;
15063;SDS011;7631;52.088;5.088;2024-01-27T02:41:04;3.37;;;1.40;;
15063;SDS011;7631;52.088;5.088;2024-01-27T02:43:29;3.77;;;1.50;;
15063;SDS011;7631;52.088;5.088;2024-01-27T02:45:55;2.17;;;1.30;;
15063;SDS011;7631;52.088;5.088;2024-01-27T02:48:20;2.33;;;1.27;;
15063;SDS011;7631;52.088;5.088;2024-01-27T02:50:45;3.87;;;1.27;;
15063;SDS011;7631;52.088;5.088;2024-01-27T02:53:10;3.40;;;1.30;;
15063;SDS011;7631;52.088;5.088;2024-01-27T02:55:36;2.33;;;1.37;;
15063;SDS011;7631;52.088;5.088;2024-01-27T02:58:01;3.03;;;1.00;;
15063;SDS011;7631;52.088;5.088;2024-01-27T03:00:26;5.63;;;1.70;;
15063;SDS011;7631;52.088;5.088;2024-01-27T03:02:51;3.60;;;1.30;;
15063;SDS011;7631;52.088;5.088;2024-01-27T03:05:16;2.50;;;1.23;;
15063;SDS011;7631;52.088;5.088;2024-01-27T03:07:42;5.07;;;1.80;;
15063;SDS011;7631;52.088;5.088;2024-01-27T03:10:07;2.77;;;1.30;;
15063;SDS011;7631;52.088;5.088;2024-01-27T03:12:32;2.60;;;1.30;;
15063;SDS011;7631;52.088;5.088;2024-01-27T03:14:57;3.53;;;1.50;;
15063;SDS011;7631;52.088;5.088;2024-01-27T03:17:23;4.33;;;1.40;;
15063;SDS011;7631;52.088;5.088;2024-01-27T03:19:48;2.97;;;1.20;;
15063;SDS011;7631;52.088;5.088;2024-01-27T03:22:13;4.00;;;1.33;;
15063;SDS011;7631;52.088;5.088;2024-01-27T03:24:38;2.80;;;1.60;;
15063;SDS011;7631;52.088;5.088;2024-01-27T03:27:03;4.00;;;1.57;;
15063;SDS011;7631;52.088;5.088;2024-01-27T03:29:29;2.07;;;1.20;;
15063;SDS011;7631;52.088;5.088;2024-01-27T03:31:54;3.03;;;1.13;;
15063;SDS011;7631;52.088;5.088;2024-01-27T03:34:19;2.27;;;1.20;;
15063;SDS011;7631;52.088;5.088;2024-01-27T03:36:49;3.93;;;1.30;;
15063;SDS011;7631;52.088;5.088;2024-01-27T03:39:14;3.13;;;1.73;;
15063;SDS011;7631;52.088;5.088;2024-01-27T03:41:40;2.97;;;1.20;;
15063;SDS011;7631;52.088;5.088;2024-01-27T03:44:05;3.93;;;1.30;;
15063;SDS011;7631;52.088;5.088;2024-01-27T03:46:30;4.40;;;1.63;;
15063;SDS011;7631;52.088;5.088;2024-01-27T03:48:55;3.17;;;1.43;;
15063;SDS011;7631;52.088;5.088;2024-01-27T03:51:21;2.63;;;1.37;;
15063;SDS011;7631;52.088;5.088;2024-01-27T03:53:46;3.07;;;1.30;;
15063;SDS011;7631;52.088;5.088;2024-01-27T03:56:12;2.70;;;1.10;;
15063;SDS011;7631;52.088;5.088;2024-01-27T03:58:37;2.83;;;1.40;;
15063;SDS011;7631;52.088;5.088;2024-01-27T04:01:03;4.00;;;1.33;;
15063;SDS011;7631;52.088;5.088;2024-01-27T04:03:29;3.40;;;1.40;;
15063;SDS011;7631;52.088;5.088;2024-01-27T04:05:54;2.53;;;1.23;;
15063;SDS011;7631;52.088;5.088;2024-01-27T04:08:19;3.33;;;1.40;;
15063;SDS011;7631;52.088;5.088;2024-01-27T04:10:44;2.60;;;1.20;;
15063;SDS011;7631;52.088;5.088;2024-01-27T04:13:09;3.40;;;1.80;;
15063;SDS011;7631;52.088;5.088;2024-01-27T04:15:35;2.10;;;1.40;;
15063;SDS011;7631;52.088;5.088;2024-01-27T04:18:06;2.77;;;1.40;;
15063;SDS011;7631;52.088;5.088;2024-01-27T04:20:36;3.63;;;1.73;;
15063;SDS011;7631;52.088;5.088;2024-01-27T04:23:01;3.57;;;1.47;;
15063;SDS011;7631;52.088;5.088;2024-01-27T04:25:27;2.47;;;1.43;;
15063;SDS011;7631;52.088;5.088;2024-01-27T04:27:52;4.70;;;1.47;;
15063;SDS011;7631;52.088;5.088;2024-01-27T04:30:18;1.90;;;1.23;;
15063;SDS011;7631;52.088;5.088;2024-01-27T04:32:43;3.20;;;1.47;;
15063;SDS011;7631;52.088;5.088;2024-01-27T04:35:09;2.93;;;1.73;;
15063;SDS011;7631;52.088;5.088;2024-01-27T04:37:34;2.43;;;1.40;;
15063;SDS011;7631;52.088;5.088;2024-01-27T04:39:59;2.97;;;1.40;;
15063;SDS011;7631;52.088;5.088;2024-01-27T04:42:25;3.83;;;1.40;;
15063;SDS011;7631;52.088;5.088;2024-01-27T04:44:50;3.43;;;1.40;;
15063;SDS011;7631;52.088;5.088;2024-01-27T04:47:15;4.10;;;1.87;;
15063;SDS011;7631;52.088;5.088;2024-01-27T04:49:40;3.23;;;1.60;;
15063;SDS011;7631;52.088;5.088;2024-01-27T04:52:06;4.97;;;2.03;;
15063;SDS011;7631;52.088;5.088;2024-01-27T04:54:31;3.40;;;1.33;;
15063;SDS011;7631;52.088;5.088;2024-01-27T04:56:56;3.27;;;1.53;;
15063;SDS011;7631;52.088;5.088;2024-01-27T04:59:22;3.53;;;1.57;;
15063;SDS011;7631;52.088;5.088;2024-01-27T05:01:47;3.53;;;1.30;;
15063;SDS011;7631;52.088;5.088;2024-01-27T05:04:12;3.47;;;1.67;;
15063;SDS011;7631;52.088;5.088;2024-01-27T05:06:38;2.27;;;1.73;;
15063;SDS011;7631;52.088;5.088;2024-01-27T05:09:04;3.57;;;2.00;;
15063;SDS011;7631;52.088;5.088;2024-01-27T05:11:31;2.53;;;1.70;;
15063;SDS011;7631;52.088;5.088;2024-01-27T05:13:57;3.00;;;1.50;;
15063;SDS011;7631;52.088;5.088;2024-01-27T05:16:25;3.40;;;1.80;;
15063;SDS011;7631;52.088;5.088;2024-01-27T05:18:50;4.27;;;1.90;;
15063;SDS011;7631;52.088;5.088;2024-01-27T05:21:16;3.07;;;1.70;;
15063;SDS011;7631;52.088;5.088;2024-01-27T05:23:41;3.13;;;1.83;;
15063;SDS011;7631;52.088;5.088;2024-01-27T05:26:06;3.43;;;1.80;;
15063;SDS011;7631;52.088;5.088;2024-01-27T05:28:31;4.57;;;1.77;;
15063;SDS011;7631;52.088;5.088;2024-01-27T05:30:57;2.87;;;1.90;;
15063;SDS011;7631;52.088;5.088;2024-01-27T05:33:22;2.50;;;1.57;;
15063;SDS011;7631;52.088;5.088;2024-01-27T05:35:47;3.27;;;1.60;;
15063;SDS011;7631;52.088;5.088;2024-01-27T05:38:12;2.97;;;1.87;;
15063;SDS011;7631;52.088;5.088;2024-01-27T05:40:37;2.73;;;1.77;;
15063;SDS011;7631;52.088;5.088;2024-01-27T05:43:03;2.53;;;1.80;;
15063;SDS011;7631;52.088;5.088;2024-01-27T05:45:28;3.93;;;2.40;;
15063;SDS011;7631;52.088;5.088;2024-01-27T05:47:54;3.23;;;1.80;;
15063;SDS011;7631;52.088;5.088;2024-01-27T05:50:19;3.07;;;1.70;;
15063;SDS011;7631;52.088;5.088;2024-01-27T05:52:44;2.37;;;1.70;;
15063;SDS011;7631;52.088;5.088;2024-01-27T05:55:09;4.73;;;1.83;;
15063;SDS011;7631;52.088;5.088;2024-01-27T05:57:36;2.87;;;1.90;;
15063;SDS011;7631;52.088;5.088;2024-01-27T06:00:01;3.27;;;1.90;;
15063;SDS011;7631;52.088;5.088;2024-01-27T06:02:27;3.53;;;2.00;;
15063;SDS011;7631;52.088;5.088;2024-01-27T06:04:52;4.03;;;2.03;;
15063;SDS011;7631;52.088;5.088;2024-01-27T06:07:17;4.07;;;2.03;;
15063;SDS011;7631;52.088;5.088;2024-01-27T06:09:42;3.37;;;2.17;;
15063;SDS011;7631;52.088;5.088;2024-01-27T06:12:07;3.40;;;1.90;;
15063;SDS011;7631;52.088;5.088;2024-01-27T06:14:33;3.37;;;2.03;;
15063;SDS011;7631;52.088;5.088;2024-01-27T06:16:58;4.07;;;2.27;;
15063;SDS011;7631;52.088;5.088;2024-01-27T06:19:23;2.80;;;1.97;;
15063;SDS011;7631;52.088;5.088;2024-01-27T06:21:48;3.57;;;1.87;;
15063;SDS011;7631;52.088;5.088;2024-01-27T06:24:13;3.90;;;2.07;;
15063;SDS011;7631;52.088;5.088;2024-01-27T06:26:39;3.70;;;2.40;;
15063;SDS011;7631;52.088;5.088;2024-01-27T06:29:04;4.63;;;2.03;;
15063;SDS011;7631;52.088;5.088;2024-01-27T06:31:29;3.00;;;2.10;;
15063;SDS011;7631;52.088;5.088;2024-01-27T06:33:54;2.30;;;1.83;;
15063;SDS011;7631;52.088;5.088;2024-01-27T06:36:19;4.43;;;2.00;;
15063;SDS011;7631;52.088;5.088;2024-01-27T06:38:47;3.07;;;2.10;;
15063;SDS011;7631;52.088;5.088;2024-01-27T06:41:13;5.20;;;2.30;;
15063;SDS011;7631;52.088;5.088;2024-01-27T06:43:38;3.87;;;2.00;;
15063;SDS011;7631;52.088;5.088;2024-01-27T06:46:03;4.00;;;2.07;;
15063;SDS011;7631;52.088;5.088;2024-01-27T06:48:29;2.90;;;2.07;;
15063;SDS011;7631;52.088;5.088;2024-01-27T06:50:54;4.10;;;2.87;;
15063;SDS011;7631;52.088;5.088;2024-01-27T06:53:19;4.07;;;2.60;;
15063;SDS011;7631;52.088;5.088;2024-01-27T06:55:45;3.33;;;2.40;;
15063;SDS011;7631;52.088;5.088;2024-01-27T06:58:10;3.07;;;2.10;;
15063;SDS011;7631;52.088;5.088;2024-01-27T07:00:35;4.27;;;2.37;;
15063;SDS011;7631;52.088;5.088;2024-01-27T07:03:00;2.90;;;2.30;;
15063;SDS011;7631;52.088;5.088;2024-01-27T07:05:26;5.40;;;2.57;;
15063;SDS011;7631;52.088;5.088;2024-01-27T07:07:51;2.80;;;2.30;;
15063;SDS011;7631;52.088;5.088;2024-01-27T07:10:16;4.60;;;2.40;;
15063;SDS011;7631;52.088;5.088;2024-01-27T07:12:41;3.67;;;2.20;;
15063;SDS011;7631;52.088;5.088;2024-01-27T07:15:07;6.23;;;2.77;;
15063;SDS011;7631;52.088;5.088;2024-01-27T07:17:32;3.07;;;2.30;;
15063;SDS011;7631;52.088;5.088;2024-01-27T07:19:57;4.33;;;2.20;;
15063;SDS011;7631;52.088;5.088;2024-01-27T07:22:23;4.37;;;2.53;;
15063;SDS011;7631;52.088;5.088;2024-01-27T07:24:48;6.87;;;2.83;;
15063;SDS011;7631;52.088;5.088;2024-01-27T07:27:16;4.40;;;2.73;;
15063;SDS011;7631;52.088;5.088;2024-01-27T07:29:41;4.30;;;2.97;;
15063;SDS011;7631;52.088;5.088;2024-01-27T07:32:06;4.47;;;2.37;;
15063;SDS011;7631;52.088;5.088;2024-01-27T07:34:33;4.27;;;2.77;;
15063;SDS011;7631;52.088;5.088;2024-01-27T07:36:59;4.43;;;2.67;;
15063;SDS011;7631;52.088;5.088;2024-01-27T07:39:24;5.77;;;2.80;;
15063;SDS011;7631;52.088;5.088;2024-01-27T07:41:49;4.10;;;2.70;;
15063;SDS011;7631;52.088;5.088;2024-01-27T07:44:15;4.10;;;2.23;;
15063;SDS011;7631;52.088;5.088;2024-01-27T07:46:40;5.03;;;2.70;;
15063;SDS011;7631;52.088;5.088;2024-01-27T07:49:09;3.57;;;2.67;;
15063;SDS011;7631;52.088;5.088;2024-01-27T07:51:34;3.97;;;2.57;;
15063;SDS011;7631;52.088;5.088;2024-01-27T07:54:00;5.43;;;2.70;;
15063;SDS011;7631;52.088;5.088;2024-01-27T07:56:26;7.03;;;2.70;;
15063;SDS011;7631;52.088;5.088;2024-01-27T07:58:51;3.60;;;2.40;;
15063;SDS011;7631;52.088;5.088;2024-01-27T08:01:17;5.07;;;2.90;;
15063;SDS011;7631;52.088;5.088;2024-01-27T08:03:42;3.03;;;2.47;;
15063;SDS011;7631;52.088;5.088;2024-01-27T08:06:10;4.93;;;2.90;;
15063;SDS011;7631;52.088;5.088;2024-01-27T08:08:36;3.97;;;2.70;;
15063;SDS011;7631;52.088;5.088;2024-01-27T08:11:01;5.07;;;2.87;;
15063;SDS011;7631;52.088;5.088;2024-01-27T08:13:26;4.30;;;2.90;;
15063;SDS011;7631;52.088;5.088;2024-01-27T08:15:52;4.13;;;2.70;;
15063;SDS011;7631;52.088;5.088;2024-01-27T08:18:17;4.27;;;2.77;;
15063;SDS011;7631;52.088;5.088;2024-01-27T08:20:42;3.63;;;2.67;;
15063;SDS011;7631;52.088;5.088;2024-01-27T08:23:07;5.70;;;2.93;;
15063;SDS011;7631;52.088;5.088;2024-01-27T08:25:33;4.87;;;2.73;;
15063;SDS011;7631;52.088;5.088;2024-01-27T08:27:58;4.57;;;2.83;;
15063;SDS011;7631;52.088;5.088;2024-01-27T08:30:24;4.43;;;2.80;;
15063;SDS011;7631;52.088;5.088;2024-01-27T08:32:49;4.47;;;2.57;;
15063;SDS011;7631;52.088;5.088;2024-01-27T08:35:14;4.77;;;2.83;;
15063;SDS011;7631;52.088;5.088;2024-01-27T08:37:39;4.10;;;2.67;;
15063;SDS011;7631;52.088;5.088;2024-01-27T08:40:05;6.20;;;2.87;;
15063;SDS011;7631;52.088;5.088;2024-01-27T08:42:30;4.27;;;2.70;;
15063;SDS011;7631;52.088;5.088;2024-01-27T08:44:56;5.53;;;2.90;;
15063;SDS011;7631;52.088;5.088;2024-01-27T08:47:23;6.40;;;3.20;;
15063;SDS011;7631;52.088;5.088;2024-01-27T08:49:48;2.83;;;2.60;;
15063;SDS011;7631;52.088;5.088;2024-01-27T08:52:14;5.40;;;3.20;;
15063;SDS011;7631;52.088;5.088;2024-01-27T08:54:39;4.37;;;2.70;;
15063;SDS011;7631;52.088;5.088;2024-01-27T08:57:06;4.97;;;3.20;;
15063;SDS011;7631;52.088;5.088;2024-01-27T08:59:31;6.07;;;3.20;;
15063;SDS011;7631;52.088;5.088;2024-01-27T09:01:56;4.60;;;3.00;;
15063;SDS011;7631;52.088;5.088;2024-01-27T09:04:21;5.10;;;2.73;;
15063;SDS011;7631;52.088;5.088;2024-01-27T09:06:47;5.50;;;3.03;;
15063;SDS011;7631;52.088;5.088;2024-01-27T09:09:12;4.70;;;2.90;;
15063;SDS011;7631;52.088;5.088;2024-01-27T09:11:37;5.40;;;3.63;;
15063;SDS011;7631;52.088;5.088;2024-01-27T09:14:02;4.83;;;2.60;;
15063;SDS011;7631;52.088;5.088;2024-01-27T09:16:30;5.43;;;3.17;;
15063;SDS011;7631;52.088;5.088;2024-01-27T09:18:55;4.57;;;2.43;;
15063;SDS011;7631;52.088;5.088;2024-01-27T09:21:20;5.03;;;2.73;;
15063;SDS011;7631;52.088;5.088;2024-01-27T09:23:47;4.83;;;3.00;;
15063;SDS011;7631;52.088;5.088;2024-01-27T09:26:13;6.53;;;3.57;;
15063;SDS011;7631;52.088;5.088;2024-01-27T09:28:38;4.47;;;3.07;;
15063;SDS011;7631;52.088;5.088;2024-01-27T09:31:09;4.50;;;2.87;;
15063;SDS011;7631;52.088;5.088;2024-01-27T09:33:34;6.47;;;3.67;;
15063;SDS011;7631;52.088;5.088;2024-01-27T09:36:00;5.77;;;3.40;;
15063;SDS011;7631;52.088;5.088;2024-01-27T09:38:25;6.60;;;3.83;;
15063;SDS011;7631;52.088;5.088;2024-01-27T09:40:51;5.23;;;3.60;;
15063;SDS011;7631;52.088;5.088;2024-01-27T09:43:16;7.13;;;3.43;;
15063;SDS011;7631;52.088;5.088;2024-01-27T09:45:42;7.27;;;3.33;;
15063;SDS011;7631;52.088;5.088;2024-01-27T09:48:07;6.43;;;3.50;;
15063;SDS011;7631;52.088;5.088;2024-01-27T09:50:34;6.00;;;3.67;;
15063;SDS011;7631;52.088;5.088;2024-01-27T09:52:59;5.90;;;3.80;;
15063;SDS011;7631;52.088;5.088;2024-01-27T09:55:25;6.97;;;3.67;;
15063;SDS011;7631;52.088;5.088;2024-01-27T09:57:51;7.03;;;4.17;;
15063;SDS011;7631;52.088;5.088;2024-01-27T10:00:17;5.47;;;3.80;;
15063;SDS011;7631;52.088;5.088;2024-01-27T10:02:42;7.10;;;4.20;;
15063;SDS011;7631;52.088;5.088;2024-01-27T10:05:11;6.63;;;4.57;;
15063;SDS011;7631;52.088;5.088;2024-01-27T10:07:37;6.57;;;4.00;;
15063;SDS011;7631;52.088;5.088;2024-01-27T10:10:03;6.40;;;4.13;;
15063;SDS011;7631;52.088;5.088;2024-01-27T10:12:28;7.77;;;4.47;;
15063;SDS011;7631;52.088;5.088;2024-01-27T10:14:54;7.43;;;4.50;;
15063;SDS011;7631;52.088;5.088;2024-01-27T10:17:22;8.00;;;4.43;;
15063;SDS011;7631;52.088;5.088;2024-01-27T10:20:01;8.47;;;4.57;;
15063;SDS011;7631;52.088;5.088;2024-01-27T10:22:28;6.83;;;4.40;;
15063;SDS011;7631;52.088;5.088;2024-01-27T10:24:53;7.17;;;4.33;;
15063;SDS011;7631;52.088;5.088;2024-01-27T10:27:19;8.27;;;4.90;;
15063;SDS011;7631;52.088;5.088;2024-01-27T10:29:54;6.07;;;4.67;;
15063;SDS011;7631;52.088;5.088;2024-01-27T10:32:22;8.17;;;4.10;;
15063;SDS011;7631;52.088;5.088;2024-01-27T10:37:28;6.00;;;4.70;;
15063;SDS011;7631;52.088;5.088;2024-01-27T10:40:03;7.43;;;4.97;;
15063;SDS011;7631;52.088;5.088;2024-01-27T10:42:28;8.47;;;4.87;;
15063;SDS011;7631;52.088;5.088;2024-01-27T10:44:56;9.13;;;5.17;;
15063;SDS011;7631;52.088;5.088;2024-01-27T10:47:22;9.47;;;4.73;;
15063;SDS011;7631;52.088;5.088;2024-01-27T10:49:48;7.97;;;4.63;;
15063;SDS011;7631;52.088;5.088;2024-01-27T10:52:14;6.80;;;5.00;;
15063;SDS011;7631;52.088;5.088;2024-01-27T10:54:43;6.93;;;5.50;;
15063;SDS011;7631;52.088;5.088;2024-01-27T10:57:08;9.20;;;5.33;;
15063;SDS011;7631;52.088;5.088;2024-01-27T10:59:34;8.40;;;5.10;;
15063;SDS011;7631;52.088;5.088;2024-01-27T11:02:00;6.63;;;4.60;;
15063;SDS011;7631;52.088;5.088;2024-01-27T11:04:26;8.47;;;4.73;;
15063;SDS011;7631;52.088;5.088;2024-01-27T11:06:53;7.80;;;4.53;;
15063;SDS011;7631;52.088;5.088;2024-01-27T11:09:18;8.17;;;5.23;;
15063;SDS011;7631;52.088;5.088;2024-01-27T11:11:44;8.33;;;5.30;;
15063;SDS011;7631;52.088;5.088;2024-01-27T11:14:10;8.17;;;5.60;;
15063;SDS011;7631;52.088;5.088;2024-01-27T11:16:36;8.97;;;5.20;;
15063;SDS011;7631;52.088;5.088;2024-01-27T11:19:03;8.17;;;5.33;;
15063;SDS011;7631;52.088;5.088;2024-01-27T11:21:29;7.33;;;4.93;;
15063;SDS011;7631;52.088;5.088;2024-01-27T11:23:54;8.80;;;4.67;;
15063;SDS011;7631;52.088;5.088;2024-01-27T11:26:20;9.83;;;5.00;;
15063;SDS011;7631;52.088;5.088;2024-01-27T11:28:45;9.27;;;5.13;;
15063;SDS011;7631;52.088;5.088;2024-01-27T11:31:10;10.20;;;5.23;;
15063;SDS011;7631;52.088;5.088;2024-01-27T11:33:43;9.70;;;5.20;;
15063;SDS011;7631;52.088;5.088;2024-01-27T11:36:21;6.97;;;4.57;;
15063;SDS011;7631;52.088;5.088;2024-01-27T11:38:47;7.70;;;4.87;;
15063;SDS011;7631;52.088;5.088;2024-01-27T11:41:12;7.07;;;4.40;;
15063;SDS011;7631;52.088;5.088;2024-01-27T11:43:37;8.03;;;4.53;;
15063;SDS011;7631;52.088;5.088;2024-01-27T11:46:02;8.90;;;4.33;;
15063;SDS011;7631;52.088;5.088;2024-01-27T11:48:28;9.13;;;4.43;;
15063;SDS011;7631;52.088;5.088;2024-01-27T11:51:05;7.73;;;4.67;;
15063;SDS011;7631;52.088;5.088;2024-01-27T11:53:31;6.67;;;4.60;;
15063;SDS011;7631;52.088;5.088;2024-01-27T11:55:56;8.20;;;4.90;;
15063;SDS011;7631;52.088;5.088;2024-01-27T11:58:21;9.33;;;5.00;;
15063;SDS011;7631;52.088;5.088;2024-01-27T12:00:47;7.60;;;5.53;;
15063;SDS011;7631;52.088;5.088;2024-01-27T12:03:12;12.27;;;6.10;;
15063;SDS011;7631;52.088;5.088;2024-01-27T12:05:37;10.05;;;5.50;;
15063;SDS011;7631;52.088;5.088;2024-01-27T12:08:03;9.37;;;5.63;;
15063;SDS011;7631;52.088;5.088;2024-01-27T12:10:28;9.00;;;5.23;;
15063;SDS011;7631;52.088;5.088;2024-01-27T12:12:53;12.13;;;5.60;;
15063;SDS011;7631;52.088;5.088;2024-01-27T12:15:18;8.93;;;5.10;;
15063;SDS011;7631;52.088;5.088;2024-01-27T12:17:49;8.93;;;5.30;;
15063;SDS011;7631;52.088;5.088;2024-01-27T12:20:14;8.13;;;4.80;;
15063;SDS011;7631;52.088;5.088;2024-01-27T12:22:41;10.83;;;5.60;;
15063;SDS011;7631;52.088;5.088;2024-01-27T12:25:10;10.87;;;4.70;;
15063;SDS011;7631;52.088;5.088;2024-01-27T12:27:36;10.20;;;5.13;;
15063;SDS011;7631;52.088;5.088;2024-01-27T12:30:01;11.13;;;5.20;;
15063;SDS011;7631;52.088;5.088;2024-01-27T12:32:27;8.87;;;5.20;;
15063;SDS011;7631;52.088;5.088;2024-01-27T12:34:53;11.97;;;5.23;;
15063;SDS011;7631;52.088;5.088;2024-01-27T12:37:20;11.60;;;4.63;;
15063;SDS011;7631;52.088;5.088;2024-01-27T12:39:46;9.30;;;4.90;;
15063;SDS011;7631;52.088;5.088;2024-01-27T12:42:11;8.00;;;4.13;;
15063;SDS011;7631;52.088;5.088;2024-01-27T12:44:37;8.80;;;4.43;;
15063;SDS011;7631;52.088;5.088;2024-01-27T12:47:02;9.17;;;4.70;;
15063;SDS011;7631;52.088;5.088;2024-01-27T12:49:29;11.57;;;4.70;;
15063;SDS011;7631;52.088;5.088;2024-01-27T12:51:54;10.07;;;4.63;;
15063;SDS011;7631;52.088;5.088;2024-01-27T12:54:19;7.97;;;4.93;;
15063;SDS011;7631;52.088;5.088;2024-01-27T12:56:45;7.77;;;4.17;;
15063;SDS011;7631;52.088;5.088;2024-01-27T12:59:10;7.40;;;3.83;;
15063;SDS011;7631;52.088;5.088;2024-01-27T13:01:35;8.70;;;4.50;;
15063;SDS011;7631;52.088;5.088;2024-01-27T13:04:01;8.43;;;4.77;;
15063;SDS011;7631;52.088;5.088;2024-01-27T13:06:27;7.53;;;4.67;;
15063;SDS011;7631;52.088;5.088;2024-01-27T13:08:52;7.67;;;3.63;;
15063;SDS011;7631;52.088;5.088;2024-01-27T13:11:19;7.33;;;4.33;;
15063;SDS011;7631;52.088;5.088;2024-01-27T13:13:45;8.30;;;3.80;;
15063;SDS011;7631;52.088;5.088;2024-01-27T13:16:10;6.63;;;4.20;;
15063;SDS011;7631;52.088;5.088;2024-01-27T13:18:35;5.33;;;3.73;;
15063;SDS011;7631;52.088;5.088;2024-01-27T13:21:01;7.53;;;3.83;;
15063;SDS011;7631;52.088;5.088;2024-01-27T13:23:26;11.53;;;4.40;;
15063;SDS011;7631;52.088;5.088;2024-01-27T13:25:51;8.43;;;4.00;;
15063;SDS011;7631;52.088;5.088;2024-01-27T13:28:17;7.30;;;3.60;;
15063;SDS011;7631;52.088;5.088;2024-01-27T13:30:42;7.10;;;3.97;;
15063;SDS011;7631;52.088;5.088;2024-01-27T13:33:07;7.43;;;3.87;;
15063;SDS011;7631;52.088;5.088;2024-01-27T13:35:32;7.40;;;4.53;;
15063;SDS011;7631;52.088;5.088;2024-01-27T13:37:57;8.53;;;3.67;;
15063;SDS011;7631;52.088;5.088;2024-01-27T13:40:23;7.07;;;3.80;;
15063;SDS011;7631;52.088;5.088;2024-01-27T13:42:48;6.40;;;4.17;;
15063;SDS011;7631;52.088;5.088;2024-01-27T13:45:13;7.07;;;4.30;;
15063;SDS011;7631;52.088;5.088;2024-01-27T13:47:38;8.27;;;3.43;;
15063;SDS011;7631;52.088;5.088;2024-01-27T13:50:04;10.20;;;4.30;;
15063;SDS011;7631;52.088;5.088;2024-01-27T13:52:29;6.10;;;3.53;;
15063;SDS011;7631;52.088;5.088;2024-01-27T13:54:55;7.43;;;4.23;;
15063;SDS011;7631;52.088;5.088;2024-01-27T13:57:20;8.03;;;3.83;;
15063;SDS011;7631;52.088;5.088;2024-01-27T13:59:45;6.00;;;3.60;;
15063;SDS011;7631;52.088;5.088;2024-01-27T14:02:11;6.70;;;4.03;;
15063;SDS011;7631;52.088;5.088;2024-01-27T14:04:36;6.27;;;3.73;;
15063;SDS011;7631;52.088;5.088;2024-01-27T14:07:01;7.10;;;4.17;;
15063;SDS011;7631;52.088;5.088;2024-01-27T14:09:31;6.57;;;3.70;;
15063;SDS011;7631;52.088;5.088;2024-01-27T14:11:56;6.87;;;4.00;;
15063;SDS011;7631;52.088;5.088;2024-01-27T14:14:22;8.07;;;4.13;;
15063;SDS011;7631;52.088;5.088;2024-01-27T14:16:47;7.17;;;3.77;;
15063;SDS011;7631;52.088;5.088;2024-01-27T14:19:12;6.77;;;3.40;;
15063;SDS011;7631;52.088;5.088;2024-01-27T14:21:37;6.13;;;3.93;;
15063;SDS011;7631;52.088;5.088;2024-01-27T14:24:03;6.43;;;3.40;;
15063;SDS011;7631;52.088;5.088;2024-01-27T14:26:31;5.63;;;3.53;;
15063;SDS011;7631;52.088;5.088;2024-01-27T14:28:56;8.60;;;3.90;;
15063;SDS011;7631;52.088;5.088;2024-01-27T14:31:22;7.22;;;4.03;;
15063;SDS011;7631;52.088;5.088;2024-01-27T14:33:47;8.57;;;3.60;;
15063;SDS011;7631;52.088;5.088;2024-01-27T14:36:12;7.47;;;4.03;;
15063;SDS011;7631;52.088;5.088;2024-01-27T14:38:38;8.00;;;4.00;;
15063;SDS011;7631;52.088;5.088;2024-01-27T14:41:03;8.73;;;4.03;;
15063;SDS011;7631;52.088;5.088;2024-01-27T14:43:29;7.63;;;3.97;;
15063;SDS011;7631;52.088;5.088;2024-01-27T14:45:55;7.23;;;3.80;;
15063;SDS011;7631;52.088;5.088;2024-01-27T14:48:21;6.73;;;3.77;;
15063;SDS011;7631;52.088;5.088;2024-01-27T14:50:46;6.07;;;3.53;;
15063;SDS011;7631;52.088;5.088;2024-01-27T14:53:17;6.63;;;3.60;;